Time;durP1;ratioP1;P1;durP2;ratioP2;P2;SDS_P1;SDS_P2;PMS_P1;PMS_P2;Temp;Humidity;BMP_temperature;BMP_pressure;BME280_temperature;BME280_humidity;BME280_pressure;Samples;Min_cycle;Max_cycle;Signal;HPM_P1;HPM_P2
2022/04/28 00:04:44;;;;;;;;;;;8.80;1.00;;;;;;10293079;28;84837;-48
2022/04/28 00:09:44;;;;;;;;;;;8.70;1.00;;;;;;10273871;28;87467;-48
2022/04/28 00:14:45;;;;;;;;;;;8.70;1.00;;;;;;10317175;28;84936;-47
2022/04/28 00:19:45;;;;;;;;;;;8.60;1.00;;;;;;10297851;28;84966;-50
2022/04/28 00:24:46;;;;;;;;;;;8.50;1.00;;;;;;10292948;28;84481;-47
2022/04/28 00:29:47;;;;;;;;;;;8.50;1.00;;;;;;10291984;28;84284;-48
2022/04/28 00:34:47;;;;;;;;;;;8.40;1.00;;;;;;10274431;28;86360;-47
2022/04/28 00:39:48;;;;;;;;;;;8.40;1.00;;;;;;10291544;28;84202;-48
2022/04/28 00:44:48;;;;;;;;;;;8.50;1.00;;;;;;10291028;28;84930;-50
2022/04/28 00:55:08;;;;;;;;;;;8.30;1.00;;;;;;10282738;28;85962;-47
2022/04/28 01:00:09;;;;;;;;;;;8.20;1.00;;;;;;10290682;28;84896;-51
2022/04/28 01:05:10;;;;;;;;;;;8.20;1.00;;;;;;10274118;28;86780;-50
2022/04/28 01:10:11;;;;;;;;;;;8.10;1.00;;;;;;10272023;28;85620;-52
2022/04/28 01:15:11;;;;;;;;;;;8.00;1.00;;;;;;10273770;28;86724;-50
2022/04/28 01:20:14;;;;;;;;;;;8.00;1.00;;;;;;10276268;28;84996;-50
2022/04/28 01:25:14;;;;;;;;;;;8.00;1.00;;;;;;10284213;28;86844;-48
2022/04/28 01:30:15;;;;;;;;;;;7.90;1.00;;;;;;10267994;28;86623;-48
2022/04/28 01:35:26;;;;;;;;;;;7.80;1.00;;;;;;10272502;28;85719;-46
2022/04/28 01:40:27;;;;;;;;;;;7.80;1.00;;;;;;10308856;28;85447;-46
2022/04/28 01:45:29;;;;;;;;;;;7.70;1.00;;;;;;10255850;28;87131;-45
2022/04/28 01:54:57;;;;;;;;;;;7.50;1.00;;;;;;10288857;28;84098;-47
2022/04/28 01:56:03;;;;;;;;;;;7.50;1.00;;;;;;10290326;28;84752;-46
2022/04/28 02:01:23;;;;;;;;;;;7.40;1.00;;;;;;10292214;28;84451;-46
2022/04/28 02:06:23;;;;;;;;;;;7.40;1.00;;;;;;10272631;28;86784;-46
2022/04/28 02:11:24;;;;;;;;;;;7.60;1.00;;;;;;10273784;28;86979;-48
2022/04/28 02:16:43;;;;;;;;;;;7.50;1.00;;;;;;10289049;28;85170;-46
2022/04/28 02:22:04;;;;;;;;;;;7.30;1.00;;;;;;10289011;28;85854;-45
2022/04/28 02:27:09;;;;;;;;;;;7.30;1.00;;;;;;10270572;28;85901;-46
2022/04/28 02:32:10;;;;;;;;;;;7.20;1.00;;;;;;10283701;28;85960;-49
2022/04/28 02:37:10;;;;;;;;;;;7.20;1.00;;;;;;10329881;28;84071;-46
2022/04/28 02:42:13;;;;;;;;;;;7.20;1.00;;;;;;10311274;28;86592;-48
2022/04/28 02:47:13;;;;;;;;;;;7.10;1.00;;;;;;10279570;28;86823;-46
2022/04/28 02:52:15;;;;;;;;;;;7.10;1.00;;;;;;10270253;28;86566;-45
2022/04/28 02:57:18;;;;;;;;;;;7.00;1.00;;;;;;10269620;28;86610;-48
2022/04/28 03:02:19;;;;;;;;;;;7.00;1.00;;;;;;10270023;28;85590;-48
2022/04/28 03:12:39;;;;;;;;;;;6.90;1.00;;;;;;10277387;28;86991;-45
2022/04/28 03:17:51;;;;;;;;;;;6.90;1.00;;;;;;10270004;28;85689;-45
2022/04/28 03:22:52;;;;;;;;;;;6.90;1.00;;;;;;10302298;28;85910;-47
2022/04/28 03:27:56;;;;;;;;;;;6.80;1.00;;;;;;10327493;28;85285;-47
2022/04/28 03:32:56;;;;;;;;;;;6.70;1.00;;;;;;10309535;28;86804;-46
2022/04/28 03:37:59;;;;;;;;;;;6.70;1.00;;;;;;10304860;28;84901;-46
2022/04/28 03:43:00;;;;;;;;;;;6.60;1.00;;;;;;10268823;28;86768;-48
2022/04/28 03:48:02;;;;;;;;;;;6.70;1.00;;;;;;10268543;28;85876;-46
2022/04/28 03:53:02;;;;;;;;;;;6.50;1.00;;;;;;10269259;28;87258;-48
2022/04/28 03:58:03;;;;;;;;;;;6.50;1.00;;;;;;10286288;28;84184;-46
2022/04/28 04:03:04;;;;;;;;;;;6.40;14.30;;;;;;10268289;28;87137;-45
2022/04/28 04:08:06;;;;;;;;;;;6.30;34.80;;;;;;10267467;28;86929;-46
2022/04/28 04:13:16;;;;;;;;;;;6.30;22.90;;;;;;10284194;28;85010;-46
2022/04/28 04:18:23;;;;;;;;;;;6.30;40.60;;;;;;10268898;28;86929;-46
2022/04/28 04:23:27;;;;;;;;;;;6.30;51.40;;;;;;10267465;28;85718;-46
2022/04/28 04:28:28;;;;;;;;;;;6.20;50.20;;;;;;10266235;28;86741;-47
2022/04/28 04:33:36;;;;;;;;;;;6.20;59.70;;;;;;10284241;28;85321;-45
2022/04/28 04:38:38;;;;;;;;;;;6.30;43.60;;;;;;10266934;28;85803;-45
2022/04/28 04:43:39;;;;;;;;;;;6.30;41.40;;;;;;10271318;28;85856;-45
2022/04/28 04:48:40;;;;;;;;;;;6.30;36.50;;;;;;10271915;28;85998;-47
2022/04/28 04:54:00;;;;;;;;;;;6.20;35.20;;;;;;10290873;28;84817;-47
2022/04/28 04:59:02;;;;;;;;;;;6.20;59.70;;;;;;10272779;28;86802;-45
2022/04/28 05:04:03;;;;;;;;;;;6.20;82.00;;;;;;10275294;28;86001;-47
2022/04/28 05:09:22;;;;;;;;;;;6.30;64.40;;;;;;10290925;28;84476;-45
2022/04/28 05:14:23;;;;;;;;;;;6.40;33.30;;;;;;10330634;28;84773;-46
2022/04/28 05:19:23;;;;;;;;;;;6.50;24.70;;;;;;10330947;28;84232;-46
2022/04/28 05:24:24;;;;;;;;;;;6.60;14.10;;;;;;10324092;28;84826;-47
2022/04/28 05:29:53;;;;;;;;;;;6.70;1.00;;;;;;10328720;28;84814;-46
2022/04/28 05:35:21;;;;;;;;;;;6.80;1.00;;;;;;10313425;28;86846;-46
2022/04/28 05:40:22;;;;;;;;;;;6.90;1.00;;;;;;10308562;28;85412;-46
2022/04/28 05:50:47;;;;;;;;;;;7.10;1.00;;;;;;10273140;28;84929;-45
2022/04/28 05:55:51;;;;;;;;;;;7.10;1.00;;;;;;10271638;28;86438;-46
2022/04/28 06:00:53;;;;;;;;;;;7.30;1.00;;;;;;10272839;28;85187;-45
2022/04/28 06:05:55;;;;;;;;;;;7.50;1.00;;;;;;10271359;28;86819;-47
2022/04/28 06:10:57;;;;;;;;;;;7.60;1.00;;;;;;10285264;28;85716;-46
2022/04/28 06:16:00;;;;;;;;;;;7.80;1.00;;;;;;10311519;28;86441;-50
2022/04/28 06:21:12;;;;;;;;;;;8.00;1.00;;;;;;10293479;28;86903;-46
2022/04/28 06:26:17;;;;;;;;;;;8.20;1.00;;;;;;10282725;28;87388;-46
2022/04/28 06:31:18;;;;;;;;;;;8.60;1.00;;;;;;10308228;28;84924;-49
2022/04/28 06:36:24;;;;;;;;;;;8.80;1.00;;;;;;10306931;28;84102;-46
2022/04/28 06:41:26;;;;;;;;;;;9.10;1.00;;;;;;10291145;28;86023;-47
2022/04/28 06:46:31;;;;;;;;;;;9.40;1.00;;;;;;10273737;28;86883;-45
2022/04/28 06:51:34;;;;;;;;;;;9.90;1.00;;;;;;10308285;28;84200;-46
2022/04/28 06:56:44;;;;;;;;;;;10.20;1.00;;;;;;10289259;28;85811;-46
2022/04/28 07:01:45;;;;;;;;;;;10.60;1.00;;;;;;10273874;28;85883;-46
2022/04/28 07:06:46;;;;;;;;;;;11.30;1.00;;;;;;10265647;28;87409;-46
2022/04/28 07:11:47;;;;;;;;;;;11.80;1.00;;;;;;10267195;28;86579;-47
2022/04/28 07:17:11;;;;;;;;;;;12.20;99.90;;;;;;10265412;28;85168;-47
2022/04/28 07:22:24;;;;;;;;;;;12.90;99.90;;;;;;10266030;28;86608;-46
2022/04/28 07:27:25;;;;;;;;;;;13.40;1.00;;;;;;10289931;28;86796;-45
2022/04/28 07:32:36;;;;;;;;;;;14.10;1.00;;;;;;10307310;22;86874;-53
2022/04/28 07:37:52;;;;;;;;;;;14.50;99.90;;;;;;10347439;28;84109;-54
2022/04/28 07:43:20;;;;;;;;;;;14.60;99.90;;;;;;10342632;28;84749;-51
2022/04/28 07:48:21;;;;;;;;;;;15.30;1.00;;;;;;10314001;28;86100;-56
2022/04/28 07:53:22;;;;;;;;;;;15.50;1.00;;;;;;10310747;28;85979;-57
2022/04/28 07:58:23;;;;;;;;;;;16.20;1.00;;;;;;10295405;28;85987;-58
2022/04/28 08:03:59;;;;;;;;;;;16.00;1.00;;;;;;10261627;28;84724;-56
2022/04/28 08:09:00;;;;;;;;;;;16.20;99.90;;;;;;10301011;28;86067;-57
2022/04/28 08:14:01;;;;;;;;;;;16.30;1.00;;;;;;10312818;28;85924;-57
2022/04/28 08:19:03;;;;;;;;;;;16.30;1.00;;;;;;10313951;28;86008;-57
2022/04/28 08:24:23;;;;;;;;;;;16.90;99.90;;;;;;10322256;28;85833;-55
2022/04/28 08:29:24;;;;;;;;;;;17.10;1.00;;;;;;10311494;28;86851;-57
2022/04/28 08:34:30;;;;;;;;;;;17.20;1.00;;;;;;10312232;28;86941;-54
2022/04/28 08:39:32;;;;;;;;;;;17.70;1.00;;;;;;10314603;28;86322;-57
2022/04/28 08:44:32;;;;;;;;;;;17.80;99.90;;;;;;10314429;28;85965;-57
2022/04/28 08:49:51;;;;;;;;;;;18.20;1.00;;;;;;10332185;28;84086;-57
2022/04/28 08:55:03;;;;;;;;;;;19.10;1.00;;;;;;10314804;28;85756;-57
2022/04/28 09:00:04;;;;;;;;;;;19.60;1.00;;;;;;10314443;28;86864;-54
2022/04/28 09:05:17;;;;;;;;;;;20.00;1.00;;;;;;10313889;28;85002;-56
2022/04/28 09:10:36;;;;;;;;;;;20.80;99.90;;;;;;10332308;28;84478;-55
2022/04/28 09:15:56;;;;;;;;;;;20.50;99.90;;;;;;10330964;28;84044;-56
2022/04/28 09:20:57;;;;;;;;;;;20.50;1.00;;;;;;10314261;28;85685;-56
2022/04/28 09:25:57;;;;;;;;;;;21.40;1.00;;;;;;10312184;28;86049;-53
2022/04/28 09:30:58;;;;;;;;;;;21.90;1.00;;;;;;10313035;28;86051;-58
2022/04/28 09:36:17;;;;;;;;;;;22.60;1.00;;;;;;10311580;28;84961;-58
2022/04/28 09:47:02;;;;;;;;;;;21.90;99.90;;;;;;10311997;28;85862;-55
2022/04/28 09:52:03;;;;;;;;;;;22.20;99.90;;;;;;10330636;28;84283;-53
2022/04/28 09:57:20;;;;;;;;;;;20.70;99.90;;;;;;10312052;28;85093;-55
2022/04/28 10:02:25;;;;;;;;;;;21.90;99.90;;;;;;10312715;28;85077;-56
2022/04/28 10:07:26;;;;;;;;;;;22.50;52.40;;;;;;10312530;28;85909;-56
2022/04/28 10:12:28;;;;;;;;;;;22.30;1.00;;;;;;10312022;28;86926;-56
2022/04/28 10:17:49;;;;;;;;;;;22.30;1.00;;;;;;10311856;28;84947;-54
2022/04/28 10:22:50;;;;;;;;;;;22.80;1.00;;;;;;10329311;28;84841;-57
2022/04/28 10:32:22;;;;;;;;;;;23.20;1.00;;;;;;10329054;28;84225;-55
2022/04/28 10:33:42;;;;;;;;;;;22.50;1.00;;;;;;10328181;28;84944;-58
2022/04/28 10:39:02;;;;;;;;;;;21.30;1.00;;;;;;10328069;28;84935;-56
2022/04/28 10:44:18;;;;;;;;;;;22.00;1.00;;;;;;10329675;28;84106;-57
2022/04/28 10:49:24;;;;;;;;;;;23.00;1.00;;;;;;10270092;28;86292;-55
2022/04/28 10:54:25;;;;;;;;;;;22.80;1.00;;;;;;10288440;28;84031;-55
2022/04/28 10:59:26;;;;;;;;;;;22.30;1.00;;;;;;10287775;28;84714;-56
2022/04/28 11:04:27;;;;;;;;;;;23.10;1.00;;;;;;10288300;28;85071;-55
2022/04/28 11:09:31;;;;;;;;;;;22.90;1.00;;;;;;10287465;28;84782;-56
2022/04/28 11:14:43;;;;;;;;;;;23.50;1.00;;;;;;10287192;28;84315;-57
2022/04/28 11:19:44;;;;;;;;;;;23.70;1.00;;;;;;10269836;28;85938;-57
2022/04/28 11:24:46;;;;;;;;;;;23.70;1.00;;;;;;10287636;28;84855;-55
2022/04/28 11:29:57;;;;;;;;;;;24.00;1.00;;;;;;10269263;28;85762;-57
2022/04/28 11:34:58;;;;;;;;;;;23.30;1.00;;;;;;10252896;28;84965;-55
2022/04/28 11:39:58;;;;;;;;;;;23.80;1.00;;;;;;10286391;28;85148;-55
2022/04/28 11:45:00;;;;;;;;;;;23.10;1.00;;;;;;10286947;28;88984;-54
2022/04/28 11:50:02;;;;;;;;;;;23.10;1.00;;;;;;10287505;28;84235;-55
2022/04/28 11:55:04;;;;;;;;;;;24.00;1.00;;;;;;10294790;28;84977;-55
2022/04/28 12:00:08;;;;;;;;;;;23.90;1.00;;;;;;10293754;28;84033;-55
2022/04/28 12:05:16;;;;;;;;;;;24.10;1.00;;;;;;10294088;28;84528;-55
2022/04/28 12:15:44;;;;;;;;;;;24.40;1.00;;;;;;10293628;28;84079;-55
2022/04/28 12:20:54;;;;;;;;;;;25.20;1.00;;;;;;10294312;28;84137;-55
2022/04/28 12:26:02;;;;;;;;;;;24.60;1.00;;;;;;10293141;28;84018;-54
2022/04/28 12:31:03;;;;;;;;;;;22.20;1.00;;;;;;10293209;28;84100;-57
2022/04/28 12:36:05;;;;;;;;;;;23.40;1.00;;;;;;10291903;28;84246;-55
2022/04/28 12:41:16;;;;;;;;;;;23.80;99.90;;;;;;10293072;28;84047;-56
2022/04/28 12:46:22;;;;;;;;;;;24.50;99.90;;;;;;10290307;28;84036;-55
2022/04/28 12:51:23;;;;;;;;;;;23.70;99.90;;;;;;10291482;28;84111;-56
2022/04/28 12:56:28;;;;;;;;;;;24.00;99.90;;;;;;10290677;28;84118;-55
2022/04/28 13:01:29;;;;;;;;;;;24.70;99.90;;;;;;10291003;28;84853;-53
2022/04/28 13:06:31;;;;;;;;;;;24.70;99.90;;;;;;10290680;28;84201;-55
2022/04/28 13:11:32;;;;;;;;;;;24.80;99.90;;;;;;10290861;28;84978;-57
2022/04/28 13:16:32;;;;;;;;;;;24.50;99.90;;;;;;10290221;28;85204;-56
2022/04/28 13:21:34;;;;;;;;;;;24.70;99.90;;;;;;10272316;28;86908;-54
2022/04/28 13:26:35;;;;;;;;;;;25.00;99.90;;;;;;10289363;28;85170;-53
2022/04/28 13:31:37;;;;;;;;;;;24.90;99.90;;;;;;10290565;28;84057;-58
2022/04/28 13:36:38;;;;;;;;;;;24.80;99.90;;;;;;10277147;22;84442;-46
2022/04/28 13:41:39;;;;;;;;;;;24.90;99.90;;;;;;10249280;28;84104;-46
2022/04/28 13:46:39;;;;;;;;;;;24.30;99.90;;;;;;10266224;28;84046;-47
2022/04/28 13:51:41;;;;;;;;;;;24.30;99.90;;;;;;10272602;28;84943;-47
2022/04/28 13:56:42;;;;;;;;;;;24.30;99.90;;;;;;10289362;28;84916;-47
2022/04/28 14:01:42;;;;;;;;;;;24.70;99.90;;;;;;10289690;28;85259;-47
2022/04/28 14:06:43;;;;;;;;;;;24.30;99.90;;;;;;10288825;28;84141;-48
2022/04/28 14:11:45;;;;;;;;;;;23.80;99.90;;;;;;10289460;28;84940;-47
2022/04/28 14:16:45;;;;;;;;;;;24.00;99.90;;;;;;10288183;28;84803;-47
2022/04/28 14:21:46;;;;;;;;;;;23.30;99.90;;;;;;10289399;28;84104;-49
2022/04/28 14:26:48;;;;;;;;;;;22.50;99.90;;;;;;10288194;28;84090;-48
2022/04/28 14:31:49;;;;;;;;;;;22.30;99.90;;;;;;10288877;28;84182;-49
2022/04/28 14:36:50;;;;;;;;;;;22.00;99.90;;;;;;10287790;28;84939;-46
2022/04/28 14:41:50;;;;;;;;;;;21.30;99.90;;;;;;10270752;28;84101;-48
2022/04/28 14:46:52;;;;;;;;;;;20.20;99.90;;;;;;10288099;28;84205;-47
2022/04/28 14:57:12;;;;;;;;;;;19.70;99.90;;;;;;10287565;28;84912;-49
2022/04/28 15:02:12;;;;;;;;;;;19.10;89.70;;;;;;10288686;28;84188;-50
2022/04/28 15:07:14;;;;;;;;;;;19.10;99.90;;;;;;10287233;28;84910;-48
2022/04/28 15:12:15;;;;;;;;;;;19.10;99.90;;;;;;10287885;28;84141;-46
2022/04/28 15:17:15;;;;;;;;;;;19.30;99.90;;;;;;10286540;28;86584;-50
2022/04/28 15:22:16;;;;;;;;;;;18.80;99.90;;;;;;10269858;28;84831;-49
2022/04/28 15:27:16;;;;;;;;;;;18.70;99.90;;;;;;10268397;28;84871;-48
2022/04/28 15:32:17;;;;;;;;;;;18.60;99.90;;;;;;10269408;28;85868;-47
2022/04/28 15:37:17;;;;;;;;;;;18.30;99.90;;;;;;10274097;28;85612;-48
2022/04/28 15:42:20;;;;;;;;;;;18.00;99.90;;;;;;10280548;28;89806;-49
2022/04/28 15:47:20;;;;;;;;;;;18.10;99.90;;;;;;10280670;28;84884;-48
2022/04/28 15:52:21;;;;;;;;;;;18.00;99.90;;;;;;10273623;28;88217;-47
2022/04/28 15:57:22;;;;;;;;;;;17.90;99.90;;;;;;10275117;28;84780;-46
2022/04/28 16:02:23;;;;;;;;;;;17.70;99.90;;;;;;10260246;28;84476;-46
2022/04/28 16:07:24;;;;;;;;;;;17.70;99.90;;;;;;10245160;28;84871;-47
2022/04/28 16:12:26;;;;;;;;;;;17.60;99.90;;;;;;10244680;28;85128;-48
2022/04/28 16:17:27;;;;;;;;;;;17.60;99.90;;;;;;10271913;28;84211;-47
2022/04/28 16:22:27;;;;;;;;;;;17.60;99.90;;;;;;10276114;28;84245;-48
2022/04/28 16:27:30;;;;;;;;;;;17.50;99.90;;;;;;10285832;28;84154;-46
2022/04/28 16:32:34;;;;;;;;;;;17.60;1.00;;;;;;10284709;28;84904;-48
2022/04/28 16:37:35;;;;;;;;;;;17.60;1.00;;;;;;10285829;28;84962;-49
2022/04/28 16:42:35;;;;;;;;;;;17.40;1.00;;;;;;10292271;28;84115;-48
2022/04/28 16:47:36;;;;;;;;;;;17.20;1.00;;;;;;10291278;28;84430;-46
2022/04/28 16:52:37;;;;;;;;;;;17.20;1.00;;;;;;10278989;28;84152;-46
2022/04/28 16:57:38;;;;;;;;;;;17.20;1.00;;;;;;10255766;28;84276;-50
2022/04/28 17:07:58;;;;;;;;;;;17.10;1.00;;;;;;10283473;28;84892;-48
2022/04/28 17:12:58;;;;;;;;;;;17.00;1.00;;;;;;10258191;28;84087;-47
2022/04/28 17:17:59;;;;;;;;;;;16.90;1.00;;;;;;10278160;28;84030;-48
2022/04/28 17:22:59;;;;;;;;;;;16.80;1.00;;;;;;10290311;28;84117;-49
2022/04/28 17:28:00;;;;;;;;;;;16.80;1.00;;;;;;10289356;28;84057;-47
2022/04/28 17:33:01;;;;;;;;;;;16.60;1.00;;;;;;10289983;28;85002;-49
2022/04/28 17:38:04;;;;;;;;;;;16.50;1.00;;;;;;10266927;28;86847;-47
2022/04/28 17:43:09;;;;;;;;;;;16.50;99.90;;;;;;10262467;28;86653;-49
2022/04/28 17:48:10;;;;;;;;;;;16.50;74.40;;;;;;10270226;28;84245;-47
2022/04/28 17:53:10;;;;;;;;;;;16.40;99.90;;;;;;10278386;28;84479;-49
2022/04/28 18:03:31;;;;;;;;;;;16.30;99.90;;;;;;10286039;28;84931;-52
2022/04/28 18:08:32;;;;;;;;;;;16.20;1.00;;;;;;10285901;28;84315;-49
2022/04/28 18:13:32;;;;;;;;;;;16.10;1.00;;;;;;10286816;28;84701;-49
2022/04/28 18:18:33;;;;;;;;;;;15.80;1.00;;;;;;10258665;28;87016;-46
2022/04/28 18:23:33;;;;;;;;;;;15.80;99.90;;;;;;10283591;28;84229;-50
2022/04/28 18:28:36;;;;;;;;;;;15.60;99.90;;;;;;10284473;28;95847;-47
2022/04/28 18:33:37;;;;;;;;;;;15.50;99.90;;;;;;10282662;28;84867;-51
2022/04/28 18:49:16;;;;;;;;;;;15.20;1.00;;;;;;10263738;28;84943;-49
2022/04/28 18:54:18;;;;;;;;;;;15.00;1.00;;;;;;10257890;28;86948;-48
2022/04/28 18:59:19;;;;;;;;;;;14.80;99.90;;;;;;10284736;28;84807;-48
2022/04/28 19:04:24;;;;;;;;;;;14.70;99.90;;;;;;10285765;28;84147;-44
2022/04/28 19:09:25;;;;;;;;;;;14.70;99.90;;;;;;10264806;28;86920;-48
2022/04/28 19:19:45;;;;;;;;;;;14.40;1.00;;;;;;10259027;28;84909;-46
2022/04/28 19:24:46;;;;;;;;;;;14.30;1.00;;;;;;10269642;28;85273;-45
2022/04/28 19:29:47;;;;;;;;;;;14.20;1.00;;;;;;10276525;28;84738;-44
2022/04/28 19:34:50;;;;;;;;;;;14.10;1.00;;;;;;10269537;22;84270;-46
2022/04/28 19:39:51;;;;;;;;;;;14.00;1.00;;;;;;10238008;28;85000;-51
2022/04/28 19:44:52;;;;;;;;;;;13.90;30.50;;;;;;10251704;28;85066;-48
2022/04/28 19:49:52;;;;;;;;;;;13.80;87.50;;;;;;10254167;28;84815;-50
2022/04/28 19:54:53;;;;;;;;;;;13.60;99.90;;;;;;10188941;28;85098;-47
2022/04/28 19:59:54;;;;;;;;;;;13.60;99.90;;;;;;10223887;28;86752;-47
2022/04/28 20:04:56;;;;;;;;;;;13.50;99.90;;;;;;10249899;28;84621;-46
2022/04/28 20:09:56;;;;;;;;;;;13.40;99.90;;;;;;10261158;28;84251;-47
2022/04/28 20:14:57;;;;;;;;;;;13.30;99.90;;;;;;10276837;28;84229;-50
2022/04/28 20:19:57;;;;;;;;;;;13.20;99.90;;;;;;10242040;28;86038;-49
2022/04/28 20:24:59;;;;;;;;;;;13.20;99.90;;;;;;10264308;28;84091;-52
2022/04/28 20:30:01;;;;;;;;;;;13.10;99.90;;;;;;10257332;28;86586;-48
2022/04/28 20:35:01;;;;;;;;;;;13.00;99.90;;;;;;10262948;28;85913;-50
2022/04/28 20:40:03;;;;;;;;;;;12.90;99.90;;;;;;10292032;28;84691;-47
2022/04/28 20:45:03;;;;;;;;;;;12.90;99.90;;;;;;10252951;28;84126;-51
2022/04/28 20:50:05;;;;;;;;;;;12.80;99.90;;;;;;10255796;28;84195;-49
2022/04/28 20:55:06;;;;;;;;;;;12.80;99.90;;;;;;10268710;28;84173;-48
2022/04/28 21:00:07;;;;;;;;;;;12.70;99.90;;;;;;10248994;28;86178;-47
2022/04/28 21:05:08;;;;;;;;;;;12.60;1.00;;;;;;10224226;28;85020;-47
2022/04/28 21:10:10;;;;;;;;;;;12.50;1.00;;;;;;10193734;28;84702;-48
2022/04/28 21:15:12;;;;;;;;;;;12.50;1.00;;;;;;10193179;28;86024;-47
2022/04/28 21:20:14;;;;;;;;;;;12.40;1.00;;;;;;10223606;28;86906;-47
2022/04/28 21:25:14;;;;;;;;;;;12.30;1.00;;;;;;10250601;28;85048;-48
2022/04/28 21:30:16;;;;;;;;;;;12.30;1.00;;;;;;10250866;28;85148;-46
2022/04/28 21:35:17;;;;;;;;;;;12.20;1.00;;;;;;10231828;28;86754;-43
2022/04/28 21:40:19;;;;;;;;;;;12.10;1.00;;;;;;10251288;28;84207;-54
2022/04/28 21:45:21;;;;;;;;;;;12.10;1.00;;;;;;10234141;28;84885;-47
2022/04/28 21:50:21;;;;;;;;;;;12.00;1.00;;;;;;10240452;28;85377;-48
2022/04/28 21:55:22;;;;;;;;;;;11.90;1.00;;;;;;10250318;28;84104;-47
2022/04/28 22:00:25;;;;;;;;;;;11.80;1.00;;;;;;10251461;28;84065;-48
2022/04/28 22:16:04;;;;;;;;;;;11.60;1.00;;;;;;10209379;28;84906;-50
2022/04/28 22:21:05;;;;;;;;;;;11.40;1.00;;;;;;10209974;28;86574;-47
2022/04/28 22:26:06;;;;;;;;;;;11.20;1.00;;;;;;10209208;28;84876;-47
2022/04/28 22:31:06;;;;;;;;;;;11.20;1.00;;;;;;10209265;28;84856;-52
2022/04/28 22:36:08;;;;;;;;;;;11.10;1.00;;;;;;10238087;28;84176;-48
2022/04/28 22:41:08;;;;;;;;;;;11.00;1.00;;;;;;10249704;28;85298;-48
2022/04/28 22:46:10;;;;;;;;;;;10.90;1.00;;;;;;10230061;28;86898;-46
2022/04/28 22:51:10;;;;;;;;;;;10.80;1.00;;;;;;10206360;28;87457;-47
2022/04/28 22:56:11;;;;;;;;;;;10.70;1.00;;;;;;10207464;28;84112;-47
2022/04/28 23:01:12;;;;;;;;;;;10.60;1.00;;;;;;10208730;28;84332;-49
2022/04/28 23:06:12;;;;;;;;;;;10.60;1.00;;;;;;10202545;28;86239;-47
2022/04/28 23:11:13;;;;;;;;;;;10.50;1.00;;;;;;10230527;28;86274;-50
2022/04/28 23:16:13;;;;;;;;;;;10.50;1.00;;;;;;10247003;28;84184;-47
2022/04/28 23:21:14;;;;;;;;;;;10.40;1.00;;;;;;10242078;28;84520;-46
2022/04/28 23:26:16;;;;;;;;;;;10.30;1.00;;;;;;10206802;28;84739;-46
2022/04/28 23:31:16;;;;;;;;;;;10.20;1.00;;;;;;10190560;28;84091;-48
2022/04/28 23:46:56;;;;;;;;;;;9.90;1.00;;;;;;10205489;28;84217;-51
2022/04/28 23:51:56;;;;;;;;;;;9.90;1.00;;;;;;10207209;28;85232;-49
2022/04/28 23:56:57;;;;;;;;;;;9.80;1.00;;;;;;10216771;28;86977;-52
